TimeCEST,TemperatureF,Dew PointF,Humidity,Sea Level PressureIn,VisibilityMPH,Wind Direction,Wind SpeedMPH,Gust SpeedMPH,PrecipitationIn,Events,Conditions,WindDirDegrees,DateUTC
12:20 AM,55.4,51.8,88,29.80,6.2,Variable,2.3,-,N/A,,Partly Cloudy,0,2013-04-05 22:20:00
12:50 AM,55.4,51.8,88,29.80,6.2,Variable,1.2,-,N/A,,Partly Cloudy,0,2013-04-05 22:50:00
1:20 AM,53.6,50.0,88,29.80,6.2,Variable,2.3,-,N/A,,Partly Cloudy,0,2013-04-05 23:20:00
1:50 AM,53.6,50.0,88,29.80,6.2,East,3.5,-,N/A,,Scattered Clouds,80,2013-04-05 23:50:00
2:20 AM,53.6,48.2,82,29.80,6.2,Variable,2.3,-,N/A,,Scattered Clouds,0,2013-04-06 00:20:00
2:50 AM,51.8,48.2,88,29.80,-9999.0,SSE,1.2,-,N/A,,Clear,150,2013-04-06 00:50:00
3:20 AM,53.6,50.0,88,29.80,6.2,SSW,2.3,-,N/A,,Partly Cloudy,200,2013-04-06 01:20:00
3:50 AM,53.6,50.0,88,29.80,6.2,South,3.5,-,N/A,,Scattered Clouds,190,2013-04-06 01:50:00
4:20 AM,53.6,50.0,88,29.80,6.2,Variable,2.3,-,N/A,,Scattered Clouds,0,2013-04-06 02:20:00
4:50 AM,51.8,48.2,88,29.77,6.2,East,3.5,-,N/A,,Partly Cloudy,90,2013-04-06 02:50:00
5:20 AM,51.8,48.2,88,29.77,6.2,East,4.6,-,N/A,,Partly Cloudy,80,2013-04-06 03:20:00
5:50 AM,50.0,46.4,87,29.77,-9999.0,ENE,2.3,-,N/A,,Clear,70,2013-04-06 03:50:00
6:20 AM,50.0,46.4,87,29.77,-9999.0,Variable,1.2,-,N/A,,Clear,0,2013-04-06 04:20:00
6:50 AM,48.2,44.6,87,29.77,-9999.0,NNW,1.2,-,N/A,,Clear,340,2013-04-06 04:50:00
7:20 AM,50.0,48.2,94,29.77,-9999.0,Variable,2.3,-,N/A,,Clear,0,2013-04-06 05:20:00
7:50 AM,53.6,48.2,82,29.77,-9999.0,NNE,5.8,-,N/A,,Clear,20,2013-04-06 05:50:00
8:20 AM,53.6,48.2,82,29.77,-9999.0,Variable,2.3,-,N/A,,Clear,0,2013-04-06 06:20:00
8:50 AM,57.2,50.0,77,29.77,-9999.0,North,5.8,18.4,N/A,,Clear,360,2013-04-06 06:50:00
9:20 AM,59.0,50.0,72,29.77,-9999.0,NNE,5.8,-,N/A,,Clear,20,2013-04-06 07:20:00
9:50 AM,60.8,48.2,63,29.80,6.2,North,3.5,-,N/A,,Partly Cloudy,10,2013-04-06 07:50:00
10:20 AM,62.6,48.2,59,29.80,6.2,NW,3.5,-,N/A,,Partly Cloudy,320,2013-04-06 08:20:00
10:50 AM,64.4,46.4,52,29.80,6.2,Variable,2.3,-,N/A,,Partly Cloudy,0,2013-04-06 08:50:00
11:20 AM,64.4,46.4,52,29.80,6.2,WNW,3.5,-,N/A,,Partly Cloudy,290,2013-04-06 09:20:00
11:50 AM,66.2,48.2,52,29.80,6.2,West,2.3,-,N/A,,Partly Cloudy,280,2013-04-06 09:50:00
12:20 PM,66.2,48.2,52,29.77,6.2,South,6.9,-,N/A,,Partly Cloudy,180,2013-04-06 10:20:00
12:50 PM,66.2,50.0,56,29.77,6.2,South,8.1,-,N/A,,Partly Cloudy,180,2013-04-06 10:50:00
1:20 PM,66.2,53.6,64,29.77,6.2,South,8.1,-,N/A,,Partly Cloudy,190,2013-04-06 11:20:00
1:50 PM,66.2,51.8,60,29.77,6.2,SSW,9.2,-,N/A,,Scattered Clouds,200,2013-04-06 11:50:00
2:20 PM,66.2,50.0,56,29.77,6.2,South,10.4,-,N/A,,Scattered Clouds,180,2013-04-06 12:20:00
2:50 PM,66.2,50.0,56,29.74,6.2,South,9.2,-,N/A,,Scattered Clouds,190,2013-04-06 12:50:00
3:20 PM,66.2,51.8,60,29.74,6.2,South,6.9,-,N/A,,Scattered Clouds,180,2013-04-06 13:20:00
3:50 PM,68.0,53.6,60,29.71,6.2,SSW,5.8,-,N/A,,Partly Cloudy,200,2013-04-06 13:50:00
4:20 PM,68.0,51.8,56,29.71,6.2,SSW,4.6,-,N/A,,Partly Cloudy,200,2013-04-06 14:20:00
4:50 PM,66.2,53.6,64,29.71,6.2,South,6.9,-,N/A,,Partly Cloudy,170,2013-04-06 14:50:00
5:20 PM,66.2,51.8,60,29.71,6.2,SSW,3.5,-,N/A,,Partly Cloudy,200,2013-04-06 15:20:00
5:50 PM,66.2,51.8,60,29.71,6.2,NW,8.1,-,N/A,,Partly Cloudy,310,2013-04-06 15:50:00
6:20 PM,64.4,51.8,64,29.71,6.2,WNW,9.2,-,N/A,,Partly Cloudy,290,2013-04-06 16:20:00
6:50 PM,62.6,50.0,63,29.71,6.2,NW,9.2,-,N/A,,Partly Cloudy,310,2013-04-06 16:50:00
7:20 PM,62.6,48.2,59,29.71,6.2,NNW,6.9,-,N/A,,Scattered Clouds,330,2013-04-06 17:20:00
7:50 PM,60.8,50.0,68,29.71,6.2,NW,6.9,-,N/A,,Mostly Cloudy,310,2013-04-06 17:50:00
8:20 PM,60.8,50.0,68,29.71,6.2,NW,6.9,-,N/A,,Mostly Cloudy,310,2013-04-06 18:20:00
8:50 PM,60.8,50.0,68,29.71,6.2,NNW,5.8,-,N/A,,Scattered Clouds,330,2013-04-06 18:50:00
9:20 PM,60.8,50.0,68,29.74,6.2,WNW,4.6,-,N/A,,Scattered Clouds,300,2013-04-06 19:20:00
9:50 PM,60.8,50.0,68,29.74,6.2,NNE,4.6,-,N/A,,Scattered Clouds,30,2013-04-06 19:50:00
10:20 PM,60.8,50.0,68,29.74,6.2,NNE,5.8,-,N/A,,Scattered Clouds,30,2013-04-06 20:20:00
10:50 PM,60.8,48.2,63,29.74,6.2,NNE,6.9,-,N/A,,Partly Cloudy,30,2013-04-06 20:50:00
11:20 PM,60.8,46.4,59,29.71,6.2,NNE,8.1,-,N/A,,Scattered Clouds,30,2013-04-06 21:20:00
11:50 PM,60.8,44.6,55,29.71,6.2,NNE,8.1,-,N/A,,Scattered Clouds,20,2013-04-06 21:50:00